sensor_id;sensor_type;location;lat;lon;timestamp;P1;durP1;ratioP1;P2;durP2;ratioP2
3280;SDS011;1652;51.318;6.202;2023-04-01T00:01:31;3.00;;;1.77;;
3280;SDS011;1652;51.318;6.202;2023-04-01T00:03:58;4.63;;;1.57;;
3280;SDS011;1652;51.318;6.202;2023-04-01T00:06:28;9.93;;;1.97;;
3280;SDS011;1652;51.318;6.202;2023-04-01T00:08:55;5.00;;;1.10;;
3280;SDS011;1652;51.318;6.202;2023-04-01T00:11:22;3.13;;;1.33;;
3280;SDS011;1652;51.318;6.202;2023-04-01T00:13:49;11.67;;;6.63;;
3280;SDS011;1652;51.318;6.202;2023-04-01T00:16:16;18.63;;;9.47;;
3280;SDS011;1652;51.318;6.202;2023-04-01T00:18:48;6.53;;;5.10;;
3280;SDS011;1652;51.318;6.202;2023-04-01T00:21:16;5.63;;;2.80;;
3280;SDS011;1652;51.318;6.202;2023-04-01T00:23:44;2.40;;;1.10;;
3280;SDS011;1652;51.318;6.202;2023-04-01T00:26:11;1.43;;;1.07;;
3280;SDS011;1652;51.318;6.202;2023-04-01T00:28:38;4.13;;;1.27;;
3280;SDS011;1652;51.318;6.202;2023-04-01T00:31:07;4.40;;;1.13;;
3280;SDS011;1652;51.318;6.202;2023-04-01T00:33:35;4.23;;;1.53;;
3280;SDS011;1652;51.318;6.202;2023-04-01T00:36:15;2.73;;;1.43;;
3280;SDS011;1652;51.318;6.202;2023-04-01T00:38:43;5.77;;;1.30;;
3280;SDS011;1652;51.318;6.202;2023-04-01T00:41:12;7.97;;;5.33;;
3280;SDS011;1652;51.318;6.202;2023-04-01T00:43:42;4.20;;;1.37;;
3280;SDS011;1652;51.318;6.202;2023-04-01T00:46:10;1.97;;;1.87;;
3280;SDS011;1652;51.318;6.202;2023-04-01T00:48:47;1.00;;;0.80;;
3280;SDS011;1652;51.318;6.202;2023-04-01T00:51:34;1.07;;;0.97;;
3280;SDS011;1652;51.318;6.202;2023-04-01T00:54:04;4.10;;;1.80;;
3280;SDS011;1652;51.318;6.202;2023-04-01T00:56:46;2.00;;;1.00;;
3280;SDS011;1652;51.318;6.202;2023-04-01T00:59:18;6.40;;;1.00;;
3280;SDS011;1652;51.318;6.202;2023-04-01T01:01:50;6.67;;;1.30;;
3280;SDS011;1652;51.318;6.202;2023-04-01T01:04:27;1.37;;;0.80;;
3280;SDS011;1652;51.318;6.202;2023-04-01T01:12:19;3.60;;;1.13;;
3280;SDS011;1652;51.318;6.202;2023-04-01T01:20:53;1.83;;;0.70;;
3280;SDS011;1652;51.318;6.202;2023-04-01T01:23:52;1.07;;;0.73;;
3280;SDS011;1652;51.318;6.202;2023-04-01T01:29:42;3.57;;;1.07;;
3280;SDS011;1652;51.318;6.202;2023-04-01T01:35:33;1.03;;;0.90;;
3280;SDS011;1652;51.318;6.202;2023-04-01T01:38:11;2.10;;;1.33;;
3280;SDS011;1652;51.318;6.202;2023-04-01T01:40:42;0.93;;;0.83;;
3280;SDS011;1652;51.318;6.202;2023-04-01T01:43:14;1.43;;;0.70;;
3280;SDS011;1652;51.318;6.202;2023-04-01T01:45:46;3.03;;;0.97;;
3280;SDS011;1652;51.318;6.202;2023-04-01T01:48:17;1.30;;;1.00;;
3280;SDS011;1652;51.318;6.202;2023-04-01T01:50:46;5.60;;;0.87;;
3280;SDS011;1652;51.318;6.202;2023-04-01T01:53:14;2.13;;;1.23;;
3280;SDS011;1652;51.318;6.202;2023-04-01T01:55:43;6.27;;;1.33;;
3280;SDS011;1652;51.318;6.202;2023-04-01T02:00:55;1.80;;;1.00;;
3280;SDS011;1652;51.318;6.202;2023-04-01T02:03:24;1.97;;;1.03;;
3280;SDS011;1652;51.318;6.202;2023-04-01T02:05:55;1.33;;;0.90;;
3280;SDS011;1652;51.318;6.202;2023-04-01T02:08:25;3.33;;;1.20;;
3280;SDS011;1652;51.318;6.202;2023-04-01T02:10:58;2.07;;;1.80;;
3280;SDS011;1652;51.318;6.202;2023-04-01T02:13:31;1.50;;;1.40;;
3280;SDS011;1652;51.318;6.202;2023-04-01T02:16:22;2.90;;;0.80;;
3280;SDS011;1652;51.318;6.202;2023-04-01T02:18:53;1.27;;;1.17;;
3280;SDS011;1652;51.318;6.202;2023-04-01T02:21:22;2.60;;;1.10;;
3280;SDS011;1652;51.318;6.202;2023-04-01T02:23:53;1.53;;;1.37;;
3280;SDS011;1652;51.318;6.202;2023-04-01T02:26:23;1.27;;;1.17;;
3280;SDS011;1652;51.318;6.202;2023-04-01T02:28:53;2.10;;;1.60;;
3280;SDS011;1652;51.318;6.202;2023-04-01T02:31:21;1.23;;;1.13;;
3280;SDS011;1652;51.318;6.202;2023-04-01T02:33:49;1.50;;;1.37;;
3280;SDS011;1652;51.318;6.202;2023-04-01T02:36:16;6.10;;;1.47;;
3280;SDS011;1652;51.318;6.202;2023-04-01T02:38:44;1.50;;;1.20;;
3280;SDS011;1652;51.318;6.202;2023-04-01T02:41:12;1.90;;;1.27;;
3280;SDS011;1652;51.318;6.202;2023-04-01T02:43:39;18.70;;;7.80;;
3280;SDS011;1652;51.318;6.202;2023-04-01T02:46:06;3.87;;;3.40;;
3280;SDS011;1652;51.318;6.202;2023-04-01T02:48:33;3.40;;;2.53;;
3280;SDS011;1652;51.318;6.202;2023-04-01T02:51:01;2.07;;;1.87;;
3280;SDS011;1652;51.318;6.202;2023-04-01T02:53:27;2.60;;;2.40;;
3280;SDS011;1652;51.318;6.202;2023-04-01T02:55:55;2.33;;;2.00;;
3280;SDS011;1652;51.318;6.202;2023-04-01T02:58:22;2.00;;;1.60;;
3280;SDS011;1652;51.318;6.202;2023-04-01T03:00:48;1.30;;;1.20;;
3280;SDS011;1652;51.318;6.202;2023-04-01T03:03:16;1.90;;;1.80;;
3280;SDS011;1652;51.318;6.202;2023-04-01T03:05:42;2.60;;;1.60;;
3280;SDS011;1652;51.318;6.202;2023-04-01T03:08:09;2.37;;;1.30;;
3280;SDS011;1652;51.318;6.202;2023-04-01T03:10:36;9.10;;;1.77;;
3280;SDS011;1652;51.318;6.202;2023-04-01T03:13:03;1.70;;;1.60;;
3280;SDS011;1652;51.318;6.202;2023-04-01T03:15:30;1.70;;;1.60;;
3280;SDS011;1652;51.318;6.202;2023-04-01T03:17:57;1.67;;;1.57;;
3280;SDS011;1652;51.318;6.202;2023-04-01T03:20:24;3.13;;;1.87;;
3280;SDS011;1652;51.318;6.202;2023-04-01T03:22:51;1.80;;;1.70;;
3280;SDS011;1652;51.318;6.202;2023-04-01T03:25:18;4.00;;;2.10;;
3280;SDS011;1652;51.318;6.202;2023-04-01T03:27:45;2.37;;;1.57;;
3280;SDS011;1652;51.318;6.202;2023-04-01T03:30:12;1.60;;;1.50;;
3280;SDS011;1652;51.318;6.202;2023-04-01T03:32:39;1.50;;;1.40;;
3280;SDS011;1652;51.318;6.202;2023-04-01T03:35:06;3.40;;;1.53;;
3280;SDS011;1652;51.318;6.202;2023-04-01T03:37:33;1.47;;;1.37;;
3280;SDS011;1652;51.318;6.202;2023-04-01T03:40:00;2.00;;;1.90;;
3280;SDS011;1652;51.318;6.202;2023-04-01T03:42:27;3.10;;;1.90;;
3280;SDS011;1652;51.318;6.202;2023-04-01T03:44:54;1.70;;;1.60;;
3280;SDS011;1652;51.318;6.202;2023-04-01T03:47:21;2.80;;;2.23;;
3280;SDS011;1652;51.318;6.202;2023-04-01T03:49:48;1.50;;;1.40;;
3280;SDS011;1652;51.318;6.202;2023-04-01T03:52:15;1.63;;;1.43;;
3280;SDS011;1652;51.318;6.202;2023-04-01T03:54:41;1.87;;;1.77;;
3280;SDS011;1652;51.318;6.202;2023-04-01T03:57:08;2.23;;;2.13;;
3280;SDS011;1652;51.318;6.202;2023-04-01T03:59:35;3.90;;;1.63;;
3280;SDS011;1652;51.318;6.202;2023-04-01T04:02:03;2.03;;;1.93;;
3280;SDS011;1652;51.318;6.202;2023-04-01T04:04:30;1.70;;;1.60;;
3280;SDS011;1652;51.318;6.202;2023-04-01T04:06:57;2.40;;;2.20;;
3280;SDS011;1652;51.318;6.202;2023-04-01T04:09:24;2.57;;;2.37;;
3280;SDS011;1652;51.318;6.202;2023-04-01T04:11:51;3.27;;;3.07;;
3280;SDS011;1652;51.318;6.202;2023-04-01T04:14:17;3.50;;;3.30;;
3280;SDS011;1652;51.318;6.202;2023-04-01T04:16:44;2.40;;;2.20;;
3280;SDS011;1652;51.318;6.202;2023-04-01T04:19:11;2.87;;;2.57;;
3280;SDS011;1652;51.318;6.202;2023-04-01T04:21:39;2.93;;;2.83;;
3280;SDS011;1652;51.318;6.202;2023-04-01T04:24:06;3.07;;;2.97;;
3280;SDS011;1652;51.318;6.202;2023-04-01T04:26:34;2.83;;;2.73;;
3280;SDS011;1652;51.318;6.202;2023-04-01T04:29:01;2.83;;;2.60;;
3280;SDS011;1652;51.318;6.202;2023-04-01T04:31:28;2.60;;;2.40;;
3280;SDS011;1652;51.318;6.202;2023-04-01T04:33:55;4.03;;;2.67;;
3280;SDS011;1652;51.318;6.202;2023-04-01T04:36:22;2.77;;;2.67;;
3280;SDS011;1652;51.318;6.202;2023-04-01T04:38:49;3.03;;;2.93;;
3280;SDS011;1652;51.318;6.202;2023-04-01T04:41:17;4.03;;;3.00;;
3280;SDS011;1652;51.318;6.202;2023-04-01T04:43:49;4.23;;;4.00;;
3280;SDS011;1652;51.318;6.202;2023-04-01T04:46:17;5.63;;;5.23;;
3280;SDS011;1652;51.318;6.202;2023-04-01T04:48:44;4.57;;;4.37;;
3280;SDS011;1652;51.318;6.202;2023-04-01T04:51:15;4.13;;;3.93;;
3280;SDS011;1652;51.318;6.202;2023-04-01T04:53:43;5.43;;;5.13;;
3280;SDS011;1652;51.318;6.202;2023-04-01T04:56:11;5.83;;;4.80;;
3280;SDS011;1652;51.318;6.202;2023-04-01T04:58:39;5.83;;;3.90;;
3280;SDS011;1652;51.318;6.202;2023-04-01T05:01:08;5.57;;;5.03;;
3280;SDS011;1652;51.318;6.202;2023-04-01T05:03:36;7.07;;;5.90;;
3280;SDS011;1652;51.318;6.202;2023-04-01T05:06:04;5.40;;;5.00;;
3280;SDS011;1652;51.318;6.202;2023-04-01T05:08:32;12.40;;;5.20;;
3280;SDS011;1652;51.318;6.202;2023-04-01T05:10:59;6.17;;;5.63;;
3280;SDS011;1652;51.318;6.202;2023-04-01T05:13:27;4.90;;;4.60;;
3280;SDS011;1652;51.318;6.202;2023-04-01T05:15:55;5.73;;;5.33;;
3280;SDS011;1652;51.318;6.202;2023-04-01T05:18:22;9.73;;;5.77;;
3280;SDS011;1652;51.318;6.202;2023-04-01T05:20:49;6.80;;;6.17;;
3280;SDS011;1652;51.318;6.202;2023-04-01T05:23:18;6.43;;;5.70;;
3280;SDS011;1652;51.318;6.202;2023-04-01T05:25:47;7.17;;;6.47;;
3280;SDS011;1652;51.318;6.202;2023-04-01T05:28:16;10.40;;;7.10;;
3280;SDS011;1652;51.318;6.202;2023-04-01T05:30:43;7.30;;;6.70;;
3280;SDS011;1652;51.318;6.202;2023-04-01T05:33:11;7.73;;;7.03;;
3280;SDS011;1652;51.318;6.202;2023-04-01T05:35:39;8.33;;;6.80;;
3280;SDS011;1652;51.318;6.202;2023-04-01T05:38:06;8.63;;;7.80;;
3280;SDS011;1652;51.318;6.202;2023-04-01T05:40:33;8.83;;;8.00;;
3280;SDS011;1652;51.318;6.202;2023-04-01T05:43:00;7.90;;;7.30;;
3280;SDS011;1652;51.318;6.202;2023-04-01T05:45:27;12.17;;;10.90;;
3280;SDS011;1652;51.318;6.202;2023-04-01T05:47:54;8.13;;;7.40;;
3280;SDS011;1652;51.318;6.202;2023-04-01T05:50:21;9.27;;;8.40;;
3280;SDS011;1652;51.318;6.202;2023-04-01T05:52:48;11.40;;;9.83;;
3280;SDS011;1652;51.318;6.202;2023-04-01T05:55:15;10.07;;;7.90;;
3280;SDS011;1652;51.318;6.202;2023-04-01T05:57:44;14.30;;;8.27;;
3280;SDS011;1652;51.318;6.202;2023-04-01T06:00:11;13.10;;;7.50;;
3280;SDS011;1652;51.318;6.202;2023-04-01T06:02:39;13.40;;;8.30;;
3280;SDS011;1652;51.318;6.202;2023-04-01T06:05:18;8.90;;;8.03;;
3280;SDS011;1652;51.318;6.202;2023-04-01T06:07:47;9.07;;;8.13;;
3280;SDS011;1652;51.318;6.202;2023-04-01T06:10:33;8.87;;;8.03;;
3280;SDS011;1652;51.318;6.202;2023-04-01T06:16:22;9.10;;;8.20;;
3280;SDS011;1652;51.318;6.202;2023-04-01T06:19:04;8.23;;;7.43;;
3280;SDS011;1652;51.318;6.202;2023-04-01T06:33:02;8.60;;;7.83;;
3280;SDS011;1652;51.318;6.202;2023-04-01T06:44:37;6.30;;;5.90;;
3280;SDS011;1652;51.318;6.202;2023-04-01T06:47:15;8.13;;;7.17;;
3280;SDS011;1652;51.318;6.202;2023-04-01T06:58:11;6.73;;;6.23;;
3280;SDS011;1652;51.318;6.202;2023-04-01T07:00:46;6.00;;;5.60;;
3280;SDS011;1652;51.318;6.202;2023-04-01T07:05:56;6.57;;;6.17;;
3280;SDS011;1652;51.318;6.202;2023-04-01T07:08:29;6.47;;;5.97;;
3280;SDS011;1652;51.318;6.202;2023-04-01T07:11:05;7.00;;;6.50;;
3280;SDS011;1652;51.318;6.202;2023-04-01T07:13:39;6.77;;;6.30;;
3280;SDS011;1652;51.318;6.202;2023-04-01T07:16:19;7.27;;;6.73;;
3280;SDS011;1652;51.318;6.202;2023-04-01T07:24:13;6.40;;;6.00;;
3280;SDS011;1652;51.318;6.202;2023-04-01T07:26:55;6.10;;;5.80;;
3280;SDS011;1652;51.318;6.202;2023-04-01T07:29:23;6.77;;;6.33;;
3280;SDS011;1652;51.318;6.202;2023-04-01T07:32:09;6.50;;;6.00;;
3280;SDS011;1652;51.318;6.202;2023-04-01T07:34:57;6.67;;;6.17;;
3280;SDS011;1652;51.318;6.202;2023-04-01T07:45:58;5.57;;;5.20;;
3280;SDS011;1652;51.318;6.202;2023-04-01T07:48:54;5.83;;;5.43;;
3280;SDS011;1652;51.318;6.202;2023-04-01T07:54:22;5.87;;;5.53;;
3280;SDS011;1652;51.318;6.202;2023-04-01T07:56:57;5.40;;;5.10;;
3280;SDS011;1652;51.318;6.202;2023-04-01T08:00:24;5.47;;;5.17;;
3280;SDS011;1652;51.318;6.202;2023-04-01T08:02:42;6.00;;;5.70;;
3280;SDS011;1652;51.318;6.202;2023-04-01T08:10:24;6.67;;;5.77;;
3280;SDS011;1652;51.318;6.202;2023-04-01T08:21:37;6.97;;;6.47;;
3280;SDS011;1652;51.318;6.202;2023-04-01T08:27:17;8.93;;;7.47;;
3280;SDS011;1652;51.318;6.202;2023-04-01T08:30:06;8.80;;;7.90;;
3280;SDS011;1652;51.318;6.202;2023-04-01T08:32:47;8.60;;;7.77;;
3280;SDS011;1652;51.318;6.202;2023-04-01T08:35:37;10.00;;;9.00;;
3280;SDS011;1652;51.318;6.202;2023-04-01T08:38:31;9.47;;;7.80;;
3280;SDS011;1652;51.318;6.202;2023-04-01T08:46:56;7.53;;;6.83;;
3280;SDS011;1652;51.318;6.202;2023-04-01T08:54:36;8.47;;;7.43;;
3280;SDS011;1652;51.318;6.202;2023-04-01T08:59:48;10.67;;;8.77;;
3280;SDS011;1652;51.318;6.202;2023-04-01T09:02:42;9.87;;;8.50;;
3280;SDS011;1652;51.318;6.202;2023-04-01T09:05:24;10.13;;;9.13;;
3280;SDS011;1652;51.318;6.202;2023-04-01T09:08:08;12.00;;;9.93;;
3280;SDS011;1652;51.318;6.202;2023-04-01T09:14:04;11.30;;;10.00;;
3280;SDS011;1652;51.318;6.202;2023-04-01T09:19:27;15.50;;;11.20;;
3280;SDS011;1652;51.318;6.202;2023-04-01T09:22:05;14.30;;;10.90;;
3280;SDS011;1652;51.318;6.202;2023-04-01T09:30:19;12.97;;;10.90;;
3280;SDS011;1652;51.318;6.202;2023-04-01T09:33:10;15.97;;;12.70;;
3280;SDS011;1652;51.318;6.202;2023-04-01T09:35:48;14.57;;;12.23;;
3280;SDS011;1652;51.318;6.202;2023-04-01T09:38:23;12.73;;;11.33;;
3280;SDS011;1652;51.318;6.202;2023-04-01T09:41:11;21.50;;;11.17;;
3280;SDS011;1652;51.318;6.202;2023-04-01T09:57:57;11.63;;;10.50;;
3280;SDS011;1652;51.318;6.202;2023-04-01T10:09:14;13.63;;;9.50;;
3280;SDS011;1652;51.318;6.202;2023-04-01T10:23:31;11.17;;;10.03;;
3280;SDS011;1652;51.318;6.202;2023-04-01T10:37:42;11.77;;;10.27;;
3280;SDS011;1652;51.318;6.202;2023-04-01T10:56:42;20.53;;;13.83;;
3280;SDS011;1652;51.318;6.202;2023-04-01T11:05:24;10.63;;;7.80;;
3280;SDS011;1652;51.318;6.202;2023-04-01T11:19:54;10.23;;;9.07;;
3280;SDS011;1652;51.318;6.202;2023-04-01T11:31:04;12.67;;;9.20;;
3280;SDS011;1652;51.318;6.202;2023-04-01T11:33:57;9.73;;;8.73;;
3280;SDS011;1652;51.318;6.202;2023-04-01T11:47:48;12.13;;;9.10;;
3280;SDS011;1652;51.318;6.202;2023-04-01T11:59:26;10.60;;;9.50;;
3280;SDS011;1652;51.318;6.202;2023-04-01T12:16:26;11.67;;;8.77;;
3280;SDS011;1652;51.318;6.202;2023-04-01T12:24:47;9.97;;;9.03;;
3280;SDS011;1652;51.318;6.202;2023-04-01T12:33:00;9.60;;;8.63;;
3280;SDS011;1652;51.318;6.202;2023-04-01T12:52:33;8.27;;;7.47;;
3280;SDS011;1652;51.318;6.202;2023-04-01T12:57:59;8.60;;;7.90;;
3280;SDS011;1652;51.318;6.202;2023-04-01T13:00:46;11.57;;;9.10;;
3280;SDS011;1652;51.318;6.202;2023-04-01T13:03:34;6.67;;;6.10;;
3280;SDS011;1652;51.318;6.202;2023-04-01T13:06:25;7.57;;;6.87;;
3280;SDS011;1652;51.318;6.202;2023-04-01T13:14:57;5.40;;;5.10;;
3280;SDS011;1652;51.318;6.202;2023-04-01T13:17:34;5.57;;;5.20;;
3280;SDS011;1652;51.318;6.202;2023-04-01T13:38:24;4.17;;;4.07;;
3280;SDS011;1652;51.318;6.202;2023-04-01T13:43:56;5.50;;;5.20;;
3280;SDS011;1652;51.318;6.202;2023-04-01T14:19:50;5.07;;;4.67;;
3280;SDS011;1652;51.318;6.202;2023-04-01T14:28:14;5.93;;;5.57;;
3280;SDS011;1652;51.318;6.202;2023-04-01T14:33:26;5.90;;;4.80;;
3280;SDS011;1652;51.318;6.202;2023-04-01T14:41:48;4.27;;;4.07;;
3280;SDS011;1652;51.318;6.202;2023-04-01T14:50:30;5.10;;;4.80;;
3280;SDS011;1652;51.318;6.202;2023-04-01T14:53:24;5.10;;;4.90;;
3280;SDS011;1652;51.318;6.202;2023-04-01T14:55:58;5.40;;;4.70;;
3280;SDS011;1652;51.318;6.202;2023-04-01T14:58:39;5.40;;;5.10;;
3280;SDS011;1652;51.318;6.202;2023-04-01T15:01:11;5.83;;;5.50;;
3280;SDS011;1652;51.318;6.202;2023-04-01T15:04:15;5.73;;;5.23;;
3280;SDS011;1652;51.318;6.202;2023-04-01T15:15:24;5.00;;;4.50;;
3280;SDS011;1652;51.318;6.202;2023-04-01T15:18:30;5.23;;;4.93;;
3280;SDS011;1652;51.318;6.202;2023-04-01T15:26:33;4.47;;;4.07;;
3280;SDS011;1652;51.318;6.202;2023-04-01T15:40:29;4.20;;;3.90;;
3280;SDS011;1652;51.318;6.202;2023-04-01T15:43:11;4.90;;;4.60;;
3280;SDS011;1652;51.318;6.202;2023-04-01T15:45:51;5.57;;;5.23;;
3280;SDS011;1652;51.318;6.202;2023-04-01T15:53:50;7.23;;;6.63;;
3280;SDS011;1652;51.318;6.202;2023-04-01T15:56:26;10.90;;;7.70;;
3280;SDS011;1652;51.318;6.202;2023-04-01T15:59:20;5.20;;;5.00;;
3280;SDS011;1652;51.318;6.202;2023-04-01T16:04:48;5.60;;;5.30;;
3280;SDS011;1652;51.318;6.202;2023-04-01T16:15:59;5.50;;;5.20;;
3280;SDS011;1652;51.318;6.202;2023-04-01T16:18:50;6.90;;;5.23;;
3280;SDS011;1652;51.318;6.202;2023-04-01T16:24:12;5.00;;;4.80;;
3280;SDS011;1652;51.318;6.202;2023-04-01T16:27:02;9.53;;;7.27;;
3280;SDS011;1652;51.318;6.202;2023-04-01T16:32:37;9.00;;;8.30;;
3280;SDS011;1652;51.318;6.202;2023-04-01T16:40:49;4.70;;;4.40;;
3280;SDS011;1652;51.318;6.202;2023-04-01T16:43:26;6.17;;;5.77;;
3280;SDS011;1652;51.318;6.202;2023-04-01T16:57:02;6.07;;;5.57;;
3280;SDS011;1652;51.318;6.202;2023-04-01T16:59:56;5.83;;;5.33;;
3280;SDS011;1652;51.318;6.202;2023-04-01T17:02:37;6.00;;;5.67;;
3280;SDS011;1652;51.318;6.202;2023-04-01T17:05:12;5.80;;;5.40;;
3280;SDS011;1652;51.318;6.202;2023-04-01T17:10:33;5.43;;;4.90;;
3280;SDS011;1652;51.318;6.202;2023-04-01T17:13:18;6.40;;;5.80;;
3280;SDS011;1652;51.318;6.202;2023-04-01T17:18:38;6.17;;;5.80;;
3280;SDS011;1652;51.318;6.202;2023-04-01T17:26:53;5.03;;;4.83;;
3280;SDS011;1652;51.318;6.202;2023-04-01T17:30:12;6.00;;;5.60;;
3280;SDS011;1652;51.318;6.202;2023-04-01T17:41:21;5.67;;;5.37;;
3280;SDS011;1652;51.318;6.202;2023-04-01T17:47:18;5.60;;;5.30;;
3280;SDS011;1652;51.318;6.202;2023-04-01T17:58:44;5.00;;;4.70;;
3280;SDS011;1652;51.318;6.202;2023-04-01T18:04:08;5.10;;;4.80;;
3280;SDS011;1652;51.318;6.202;2023-04-01T18:12:51;5.87;;;5.47;;
3280;SDS011;1652;51.318;6.202;2023-04-01T18:18:32;5.60;;;5.20;;
3280;SDS011;1652;51.318;6.202;2023-04-01T18:21:27;5.60;;;5.10;;
3280;SDS011;1652;51.318;6.202;2023-04-01T18:27:01;5.47;;;5.10;;
3280;SDS011;1652;51.318;6.202;2023-04-01T18:29:41;6.07;;;5.67;;
3280;SDS011;1652;51.318;6.202;2023-04-01T18:32:23;6.53;;;6.03;;
3280;SDS011;1652;51.318;6.202;2023-04-01T18:38:16;5.97;;;5.67;;
3280;SDS011;1652;51.318;6.202;2023-04-01T18:46:11;6.87;;;6.40;;
3280;SDS011;1652;51.318;6.202;2023-04-01T18:57:03;6.87;;;6.27;;
3280;SDS011;1652;51.318;6.202;2023-04-01T19:05:04;7.77;;;7.07;;
3280;SDS011;1652;51.318;6.202;2023-04-01T19:13:10;8.00;;;7.30;;
3280;SDS011;1652;51.318;6.202;2023-04-01T19:21:53;9.30;;;8.37;;
3280;SDS011;1652;51.318;6.202;2023-04-01T19:27:23;9.73;;;8.73;;
3280;SDS011;1652;51.318;6.202;2023-04-01T19:35:52;6.60;;;5.90;;
3280;SDS011;1652;51.318;6.202;2023-04-01T19:38:29;6.30;;;5.80;;
3280;SDS011;1652;51.318;6.202;2023-04-01T19:41:18;5.63;;;5.33;;
3280;SDS011;1652;51.318;6.202;2023-04-01T19:46:40;6.23;;;5.83;;
3280;SDS011;1652;51.318;6.202;2023-04-01T19:49:29;6.30;;;5.90;;
3280;SDS011;1652;51.318;6.202;2023-04-01T19:52:09;7.07;;;6.47;;
3280;SDS011;1652;51.318;6.202;2023-04-01T19:54:51;6.77;;;6.27;;
3280;SDS011;1652;51.318;6.202;2023-04-01T19:57:26;6.93;;;6.50;;
3280;SDS011;1652;51.318;6.202;2023-04-01T20:03:03;7.10;;;6.60;;
3280;SDS011;1652;51.318;6.202;2023-04-01T20:05:51;6.30;;;5.90;;
3280;SDS011;1652;51.318;6.202;2023-04-01T20:08:36;7.90;;;7.10;;
3280;SDS011;1652;51.318;6.202;2023-04-01T20:20:14;7.00;;;6.40;;
3280;SDS011;1652;51.318;6.202;2023-04-01T20:23:03;7.53;;;6.90;;
3280;SDS011;1652;51.318;6.202;2023-04-01T20:25:43;7.00;;;6.60;;
3280;SDS011;1652;51.318;6.202;2023-04-01T20:36:46;5.83;;;5.43;;
3280;SDS011;1652;51.318;6.202;2023-04-01T20:39:45;5.93;;;5.53;;
3280;SDS011;1652;51.318;6.202;2023-04-01T20:42:34;6.13;;;5.83;;
3280;SDS011;1652;51.318;6.202;2023-04-01T20:45:26;6.93;;;6.43;;
3280;SDS011;1652;51.318;6.202;2023-04-01T20:48:02;7.47;;;6.00;;
3280;SDS011;1652;51.318;6.202;2023-04-01T20:50:57;5.37;;;5.10;;
3280;SDS011;1652;51.318;6.202;2023-04-01T20:53:51;5.40;;;5.10;;
3280;SDS011;1652;51.318;6.202;2023-04-01T20:56:34;5.43;;;5.13;;
3280;SDS011;1652;51.318;6.202;2023-04-01T21:07:46;4.90;;;4.70;;
3280;SDS011;1652;51.318;6.202;2023-04-01T21:10:40;7.00;;;6.50;;
3280;SDS011;1652;51.318;6.202;2023-04-01T21:13:34;3.03;;;2.83;;
3280;SDS011;1652;51.318;6.202;2023-04-01T21:21:53;6.90;;;6.03;;
3280;SDS011;1652;51.318;6.202;2023-04-01T21:27:11;6.50;;;5.87;;
3280;SDS011;1652;51.318;6.202;2023-04-01T21:35:53;5.50;;;5.30;;
3280;SDS011;1652;51.318;6.202;2023-04-01T21:44:33;5.43;;;5.17;;
3280;SDS011;1652;51.318;6.202;2023-04-01T21:53:00;6.13;;;5.63;;
3280;SDS011;1652;51.318;6.202;2023-04-01T22:06:57;6.40;;;6.00;;
3280;SDS011;1652;51.318;6.202;2023-04-01T22:09:39;5.07;;;4.77;;
3280;SDS011;1652;51.318;6.202;2023-04-01T22:12:23;6.00;;;5.60;;
3280;SDS011;1652;51.318;6.202;2023-04-01T22:15:00;4.93;;;4.63;;
3280;SDS011;1652;51.318;6.202;2023-04-01T22:18:01;5.30;;;5.00;;
3280;SDS011;1652;51.318;6.202;2023-04-01T22:20:40;5.20;;;4.90;;
3280;SDS011;1652;51.318;6.202;2023-04-01T22:23:31;5.33;;;5.03;;
3280;SDS011;1652;51.318;6.202;2023-04-01T22:26:19;5.60;;;5.20;;
3280;SDS011;1652;51.318;6.202;2023-04-01T22:31:27;5.93;;;5.63;;
3280;SDS011;1652;51.318;6.202;2023-04-01T22:39:44;5.70;;;5.40;;
3280;SDS011;1652;51.318;6.202;2023-04-01T22:42:39;6.00;;;5.60;;
3280;SDS011;1652;51.318;6.202;2023-04-01T22:50:54;6.03;;;5.60;;
3280;SDS011;1652;51.318;6.202;2023-04-01T22:53:47;6.17;;;5.83;;
3280;SDS011;1652;51.318;6.202;2023-04-01T22:56:30;6.00;;;5.70;;
3280;SDS011;1652;51.318;6.202;2023-04-01T22:59:10;3.50;;;3.33;;
3280;SDS011;1652;51.318;6.202;2023-04-01T23:02:01;8.00;;;7.20;;
3280;SDS011;1652;51.318;6.202;2023-04-01T23:04:37;8.90;;;7.13;;
3280;SDS011;1652;51.318;6.202;2023-04-01T23:07:21;8.00;;;7.20;;
3280;SDS011;1652;51.318;6.202;2023-04-01T23:10:23;6.97;;;6.47;;
3280;SDS011;1652;51.318;6.202;2023-04-01T23:12:55;7.53;;;6.93;;
3280;SDS011;1652;51.318;6.202;2023-04-01T23:15:28;7.30;;;6.60;;
3280;SDS011;1652;51.318;6.202;2023-04-01T23:17:59;7.50;;;6.90;;
3280;SDS011;1652;51.318;6.202;2023-04-01T23:21:03;6.80;;;6.20;;
3280;SDS011;1652;51.318;6.202;2023-04-01T23:26:20;8.00;;;7.30;;
3280;SDS011;1652;51.318;6.202;2023-04-01T23:28:56;7.07;;;6.47;;
3280;SDS011;1652;51.318;6.202;2023-04-01T23:31:29;7.97;;;7.03;;
3280;SDS011;1652;51.318;6.202;2023-04-01T23:36:41;8.27;;;7.13;;
3280;SDS011;1652;51.318;6.202;2023-04-01T23:39:32;9.00;;;8.10;;
3280;SDS011;1652;51.318;6.202;2023-04-01T23:42:07;7.93;;;7.10;;
3280;SDS011;1652;51.318;6.202;2023-04-01T23:44:42;6.03;;;5.70;;
3280;SDS011;1652;51.318;6.202;2023-04-01T23:47:12;7.93;;;7.00;;
3280;SDS011;1652;51.318;6.202;2023-04-01T23:50:18;7.40;;;6.70;;
3280;SDS011;1652;51.318;6.202;2023-04-01T23:52:40;8.67;;;6.67;;
3280;SDS011;1652;51.318;6.202;2023-04-01T23:58:00;7.87;;;7.10;;
